^^
Datos históricos de la estación: Murcia-Puente Tocinos
Diario Informe para Octubre 19, 2020 Unidades:  Ambas    Ingés   Métrico
Diario Semanal Mensual Anual
  Máxima: Mínima: Promedio:
Temperatura: 60.1 °F /  15.6 °C 54.7 °F /  12.6 °C 57 °F /  13.9 °C
Punto de rocio: 53.1 °F /  11.7 °C 48.6 °F /  9.2 °C 50.4 °F /  10.2 °C
Humedad: 81% 75% 78%
Velocidad viento: 6.2mph /  10km/h - 3.2mph /  5.2km/h
Racha viento: 10.4mph /  16.7km/h - -
Viento- - Sur
Presión: 30.2 in /  1021.1 hPa 30.1 in /  1019.9 hPa -
Precipitación: 0 in /  0.0 mm    
 
 
Tabla de datos para Octubre 19, 2020
Hora Temperatura Punto de rocio Presión Viento Velocidad viento Racha viento Humedad Intensidad lluvia(por hora) Nubes
00:04 60.1 °F /  15.6 °C 52.9 °F /  11.6 °C 30.1in /  1020.8hPa Este 2.2mph /  3.6km/h 6.2mph /  10km/h 77% 0in /  0.0mm
00:09 59.5 °F /  15.3 °C 52.3 °F /  11.3 °C 30.1in /  1020.8hPa Este 4mph /  6.4km/h 6mph /  9.7km/h 77% 0in /  0.0mm
00:14 59.4 °F /  15.2 °C 52.5 °F /  11.4 °C 30.1in /  1020.8hPa ESE 3.9mph /  6.3km/h 6mph /  9.7km/h 78% 0in /  0.0mm
00:19 59.4 °F /  15.2 °C 52.3 °F /  11.3 °C 30.1in /  1020.8hPa ESE 3.1mph /  5km/h 5mph /  8km/h 78% 0in /  0.0mm
00:24 59.2 °F /  15.1 °C 52.3 °F /  11.3 °C 30.1in /  1020.8hPa ESE 3mph /  4.8km/h 5mph /  8km/h 78.2% 0in /  0.0mm
00:29 59.2 °F /  15.1 °C 52.7 °F /  11.5 °C 30.1in /  1020.8hPa SE 2.4mph /  3.9km/h 3.6mph /  5.8km/h 79% 0in /  0.0mm
00:34 59.2 °F /  15.1 °C 52.7 °F /  11.5 °C 30.1in /  1020.8hPa SE 2.4mph /  3.9km/h 4.6mph /  7.4km/h 79% 0in /  0.0mm
00:39 59.2 °F /  15.1 °C 52.7 °F /  11.5 °C 30.2in /  1020.9hPa SE 2.4mph /  3.9km/h 4.6mph /  7.4km/h 79% 0in /  0.0mm
00:44 59.4 °F /  15.2 °C 53.1 °F /  11.7 °C 30.2in /  1020.9hPa SSE 2.4mph /  3.9km/h 5mph /  8km/h 79.6% 0in /  0.0mm
00:49 59.5 °F /  15.3 °C 52.9 °F /  11.6 °C 30.2in /  1020.9hPa SSE 2.4mph /  3.9km/h 3.5mph /  5.6km/h 79% 0in /  0.0mm
00:54 59.5 °F /  15.3 °C 53.1 °F /  11.7 °C 30.2in /  1020.9hPa SSE 2.3mph /  3.7km/h 3mph /  4.8km/h 79% 0in /  0.0mm
00:59 59.5 °F /  15.3 °C 53.1 °F /  11.7 °C 30.1in /  1020.8hPa SSE 1.8mph /  2.9km/h 3mph /  4.8km/h 79% 0in /  0.0mm
01:04 59.5 °F /  15.3 °C 52.7 °F /  11.5 °C 30.1in /  1020.8hPa SSE 1.7mph /  2.8km/h 2.9mph /  4.7km/h 78% 0in /  0.0mm
01:09 59.5 °F /  15.3 °C 52.7 °F /  11.5 °C 30.2in /  1020.9hPa SSE 1.4mph /  2.2km/h 3.5mph /  5.6km/h 78% 0in /  0.0mm
01:14 59.4 °F /  15.2 °C 52.2 °F /  11.2 °C 30.2in /  1020.9hPa SSE 1.4mph /  2.3km/h 3mph /  4.8km/h 77.2% 0in /  0.0mm
01:19 59.4 °F /  15.2 °C 52.2 °F /  11.2 °C 30.2in /  1020.9hPa SSE 1.8mph /  2.9km/h 3.5mph /  5.6km/h 77% 0in /  0.0mm
01:24 59.4 °F /  15.2 °C 52 °F /  11.1 °C 30.2in /  1020.9hPa SSE 1.9mph /  3km/h 4.6mph /  7.4km/h 76.9% 0in /  0.0mm
01:29 59.2 °F /  15.1 °C 51.6 °F /  10.9 °C 30.2in /  1020.9hPa SE 2.4mph /  3.9km/h 5mph /  8km/h 76% 0in /  0.0mm
01:34 59 °F /  15 °C 51.4 °F /  10.8 °C 30.2in /  1020.9hPa SSE 2.5mph /  4km/h 5mph /  8km/h 76% 0in /  0.0mm
01:39 58.8 °F /  14.9 °C 51.3 °F /  10.7 °C 30.2in /  1020.9hPa SE 2.9mph /  4.7km/h 5.8mph /  9.3km/h 76% 0in /  0.0mm
01:44 58.6 °F /  14.8 °C 51.1 °F /  10.6 °C 30.1in /  1020.8hPa SE 3mph /  4.8km/h 6mph /  9.7km/h 76% 0in /  0.0mm
01:49 58.5 °F /  14.7 °C 50.9 °F /  10.5 °C 30.1in /  1020.8hPa SSE 3.6mph /  5.8km/h 6mph /  9.7km/h 76% 0in /  0.0mm
01:54 58.5 °F /  14.7 °C 50.9 °F /  10.5 °C 30.1in /  1020.8hPa SSE 3.6mph /  5.8km/h 5.8mph /  9.3km/h 76% 0in /  0.0mm
01:59 58.5 °F /  14.7 °C 50.7 °F /  10.4 °C 30.1in /  1020.8hPa Sur 3.6mph /  5.8km/h 6mph /  9.7km/h 75.6% 0in /  0.0mm
02:04 58.5 °F /  14.7 °C 50.9 °F /  10.5 °C 30.1in /  1020.8hPa SSO 3.5mph /  5.6km/h 6mph /  9.7km/h 76% 0in /  0.0mm
02:09 58.5 °F /  14.7 °C 50.9 °F /  10.5 °C 30.1in /  1020.8hPa SSO 2.9mph /  4.7km/h 5mph /  8km/h 76% 0in /  0.0mm
02:14 58.5 °F /  14.7 °C 50.9 °F /  10.5 °C 30.1in /  1020.7hPa SSO 2.8mph /  4.5km/h 5mph /  8km/h 76% 0in /  0.0mm
02:19 58.5 °F /  14.7 °C 50.9 °F /  10.5 °C 30.1in /  1020.7hPa SSO 2mph /  3.2km/h 4.6mph /  7.4km/h 76% 0in /  0.0mm
02:24 58.5 °F /  14.7 °C 50.9 °F /  10.5 °C 30.1in /  1020.7hPa Sur 2.1mph /  3.4km/h 5mph /  8km/h 76% 0in /  0.0mm
02:29 58.5 °F /  14.7 °C 50.9 °F /  10.5 °C 30.1in /  1020.7hPa Sur 2.9mph /  4.7km/h 5mph /  8km/h 76% 0in /  0.0mm
02:34 58.3 °F /  14.6 °C 50.7 °F /  10.4 °C 30.1in /  1020.7hPa Sur 2.9mph /  4.7km/h 5mph /  8km/h 76% 0in /  0.0mm
02:39 58.1 °F /  14.5 °C 50.7 °F /  10.4 °C 30.1in /  1020.7hPa Sur 3.1mph /  5km/h 5mph /  8km/h 76% 0in /  0.0mm
02:44 57.9 °F /  14.4 °C 50.7 °F /  10.4 °C 30.1in /  1020.6hPa Sur 3mph /  4.9km/h 5.2mph /  8.4km/h 76.8% 0in /  0.0mm
02:49 57.9 °F /  14.4 °C 50.7 °F /  10.4 °C 30.1in /  1020.6hPa Sur 2.9mph /  4.7km/h 5mph /  8km/h 77% 0in /  0.0mm
02:54 57.7 °F /  14.3 °C 50.7 °F /  10.4 °C 30.1in /  1020.6hPa Sur 2.9mph /  4.7km/h 5mph /  8km/h 77.3% 0in /  0.0mm
02:59 57.7 °F /  14.3 °C 50.9 °F /  10.5 °C 30.1in /  1020.5hPa Sur 3.1mph /  5km/h 5mph /  8km/h 78% 0in /  0.0mm
03:04 57.6 °F /  14.2 °C 50.9 °F /  10.5 °C 30.1in /  1020.5hPa Sur 3.1mph /  5km/h 5.2mph /  8.4km/h 78% 0in /  0.0mm
03:09 57.6 °F /  14.2 °C 50.7 °F /  10.4 °C 30.1in /  1020.5hPa SSE 3.1mph /  5km/h 5mph /  8km/h 78% 0in /  0.0mm
03:14 57.6 °F /  14.2 °C 50.9 °F /  10.5 °C 30.1in /  1020.4hPa Sur 3mph /  4.9km/h 5mph /  8km/h 78.2% 0in /  0.0mm
03:19 57.4 °F /  14.1 °C 50.9 °F /  10.5 °C 30.1in /  1020.4hPa Sur 2.9mph /  4.7km/h 5mph /  8km/h 78.8% 0in /  0.0mm
03:24 57.4 °F /  14.1 °C 50.7 °F /  10.4 °C 30.1in /  1020.4hPa Sur 3mph /  4.8km/h 6.2mph /  10km/h 78.3% 0in /  0.0mm
03:29 57.2 °F /  14 °C 50.5 °F /  10.3 °C 30.1in /  1020.4hPa Sur 3.6mph /  5.8km/h 6mph /  9.7km/h 78.7% 0in /  0.0mm
03:34 57.2 °F /  14 °C 50.7 °F /  10.4 °C 30.1in /  1020.4hPa Sur 3.5mph /  5.7km/h 6mph /  9.7km/h 79% 0in /  0.0mm
03:39 57.2 °F /  14 °C 50.7 °F /  10.4 °C 30.1in /  1020.4hPa Sur 3.1mph /  5km/h 6.9mph /  11.1km/h 79% 0in /  0.0mm
03:44 57.2 °F /  14 °C 50.7 °F /  10.4 °C 30.1in /  1020.2hPa Sur 3.2mph /  5.1km/h 7mph /  11.3km/h 79% 0in /  0.0mm
03:49 57 °F /  13.9 °C 50.5 °F /  10.3 °C 30.1in /  1020.2hPa Sur 3.6mph /  5.8km/h 7.4mph /  11.9km/h 79% 0in /  0.0mm
03:54 57 °F /  13.9 °C 50.5 °F /  10.3 °C 30.1in /  1020.2hPa SSO 3.6mph /  5.8km/h 7mph /  11.3km/h 79% 0in /  0.0mm
03:59 57 °F /  13.9 °C 50.7 °F /  10.4 °C 30.1in /  1020.1hPa SSO 3.6mph /  5.8km/h 6.2mph /  10km/h 79.3% 0in /  0.0mm
04:04 57 °F /  13.9 °C 50.9 °F /  10.5 °C 30.1in /  1020.1hPa Sur 3.6mph /  5.8km/h 6mph /  9.7km/h 80% 0in /  0.0mm
04:09 56.8 °F /  13.8 °C 50.7 °F /  10.4 °C 30.1in /  1020.1hPa SSO 3.6mph /  5.8km/h 5mph /  8km/h 80% 0in /  0.0mm
04:14 56.8 °F /  13.8 °C 50.5 °F /  10.3 °C 30.1in /  1020.1hPa Sur 3.5mph /  5.7km/h 5mph /  8km/h 79.6% 0in /  0.0mm
04:19 56.8 °F /  13.8 °C 50.4 °F /  10.2 °C 30.1in /  1020.1hPa SSO 3.1mph /  5km/h 5mph /  8km/h 79% 0in /  0.0mm
04:24 56.8 °F /  13.8 °C 50.4 °F /  10.2 °C 30.1in /  1020.1hPa SSO 2.9mph /  4.7km/h 4mph /  6.4km/h 79% 0in /  0.0mm
04:29 56.8 °F /  13.8 °C 50.4 °F /  10.2 °C 30.1in /  1020.0hPa SSO 1.4mph /  2.3km/h 2mph /  3.2km/h 79% 0in /  0.0mm
04:34 56.7 °F /  13.7 °C 50.2 °F /  10.1 °C 30.1in /  1020.0hPa SO 1.4mph /  2.3km/h 4.6mph /  7.4km/h 78.8% 0in /  0.0mm
04:39 56.3 °F /  13.5 °C 49.6 °F /  9.8 °C 30.1in /  1020.0hPa NNO 1.4mph /  2.2km/h 5mph /  8km/h 78% 0in /  0.0mm
04:44 55.9 °F /  13.3 °C 49.5 °F /  9.7 °C 30.1in /  1020.0hPa ONO 1.5mph /  2.4km/h 5mph /  8km/h 79% 0in /  0.0mm
04:49 55.8 °F /  13.2 °C 49.6 °F /  9.8 °C 30.1in /  1020.0hPa ONO 2.4mph /  3.9km/h 5mph /  8km/h 80% 0in /  0.0mm
04:54 55.6 °F /  13.1 °C 49.6 °F /  9.8 °C 30.1in /  1020.0hPa OSO 2.3mph /  3.7km/h 4.6mph /  7.4km/h 80.6% 0in /  0.0mm
04:59 55.8 °F /  13.2 °C 49.8 °F /  9.9 °C 30.1in /  1020.0hPa Sur 1.8mph /  2.9km/h 5mph /  8km/h 81% 0in /  0.0mm
05:04 55.8 °F /  13.2 °C 49.8 °F /  9.9 °C 30.1in /  1020.0hPa ESE 1.9mph /  3.1km/h 5.9mph /  9.5km/h 80.2% 0in /  0.0mm
05:09 55.8 °F /  13.2 °C 49.5 °F /  9.7 °C 30.1in /  1020.0hPa SE 2.9mph /  4.7km/h 6mph /  9.7km/h 79.3% 0in /  0.0mm
05:14 55.9 °F /  13.3 °C 49.5 °F /  9.7 °C 30.1in /  1020.0hPa SSE 2.9mph /  4.6km/h 6.4mph /  10.3km/h 78.9% 0in /  0.0mm
05:19 55.9 °F /  13.3 °C 49.3 °F /  9.6 °C 30.1in /  1020.0hPa SE 2.4mph /  3.9km/h 7.4mph /  11.9km/h 78.6% 0in /  0.0mm
05:24 55.8 °F /  13.2 °C 49.5 °F /  9.7 °C 30.1in /  1020.2hPa SSE 2.7mph /  4.4km/h 7.4mph /  11.9km/h 79.4% 0in /  0.0mm
05:29 55.8 °F /  13.2 °C 49.6 °F /  9.8 °C 30.1in /  1020.2hPa Sur 5.2mph /  8.3km/h 8.1mph /  13km/h 80% 0in /  0.0mm
05:34 55.8 °F /  13.2 °C 49.5 °F /  9.7 °C 30.1in /  1020.2hPa SSO 5.3mph /  8.5km/h 10.4mph /  16.7km/h 79.4% 0in /  0.0mm
05:39 55.6 °F /  13.1 °C 49.1 °F /  9.5 °C 30.1in /  1020.2hPa SSO 6.2mph /  10km/h 10mph /  16.1km/h 79% 0in /  0.0mm
05:44 55.4 °F /  13 °C 48.9 °F /  9.4 °C 30.1in /  1020.1hPa SSO 6mph /  9.7km/h 8.1mph /  13km/h 79% 0in /  0.0mm
05:49 55.2 °F /  12.9 °C 49.1 °F /  9.5 °C 30.1in /  1020.1hPa Sur 4.7mph /  7.6km/h 8mph /  12.9km/h 79.7% 0in /  0.0mm
05:54 55.2 °F /  12.9 °C 49.3 °F /  9.6 °C 30.1in /  1020.2hPa SSO 4.7mph /  7.5km/h 7mph /  11.3km/h 80% 0in /  0.0mm
05:59 55.2 °F /  12.9 °C 49.3 °F /  9.6 °C 30.1in /  1020.2hPa SO 4.3mph /  6.9km/h 7mph /  11.3km/h 80% 0in /  0.0mm
06:04 55.4 °F /  13 °C 49.3 °F /  9.6 °C 30.1in /  1020.2hPa SO 4.2mph /  6.7km/h 7mph /  11.3km/h 80% 0in /  0.0mm
06:09 55.6 °F /  13.1 °C 49.5 °F /  9.7 °C 30.1in /  1020.2hPa SSO 3.1mph /  5km/h 6.2mph /  10km/h 80% 0in /  0.0mm
06:14 55.8 °F /  13.2 °C 49.6 °F /  9.8 °C 30.1in /  1020.1hPa SSO 3.2mph /  5.2km/h 6.2mph /  10km/h 80% 0in /  0.0mm
06:19 55.8 °F /  13.2 °C 49.8 °F /  9.9 °C 30.1in /  1020.1hPa SO 4.3mph /  6.9km/h 5.9mph /  9.5km/h 80% 0in /  0.0mm
06:24 55.9 °F /  13.3 °C 49.8 °F /  9.9 °C 30.1in /  1020.1hPa SSO 4.2mph /  6.8km/h 7.4mph /  11.9km/h 80% 0in /  0.0mm
06:29 55.9 °F /  13.3 °C 50 °F /  10 °C 30.1in /  1020.1hPa Sur 3.6mph /  5.8km/h 7mph /  11.3km/h 80% 0in /  0.0mm
06:34 56.1 °F /  13.4 °C 50 °F /  10 °C 30.1in /  1020.1hPa Sur 3.5mph /  5.7km/h 6mph /  9.7km/h 80% 0in /  0.0mm
06:39 56.1 °F /  13.4 °C 50 °F /  10 °C 30.1in /  1020.1hPa SSE 3.1mph /  5km/h 6mph /  9.7km/h 80% 0in /  0.0mm
06:44 55.9 °F /  13.3 °C 50 °F /  10 °C 30.1in /  1020.0hPa SSE 3.2mph /  5.1km/h 5mph /  8km/h 80% 0in /  0.0mm
06:49 55.9 °F /  13.3 °C 49.8 °F /  9.9 °C 30.1in /  1020.0hPa Sur 3.6mph /  5.8km/h 5mph /  8km/h 80% 0in /  0.0mm
06:54 55.9 °F /  13.3 °C 50 °F /  10 °C 30.1in /  1020.0hPa SO 3.5mph /  5.7km/h 6.2mph /  10km/h 80.4% 0in /  0.0mm
06:59 55.8 °F /  13.2 °C 50 °F /  10 °C 30.1in /  1020.0hPa SO 3.1mph /  5km/h 6mph /  9.7km/h 81% 0in /  0.0mm
07:04 55.8 °F /  13.2 °C 50 °F /  10 °C 30.1in /  1020.0hPa SO 3.1mph /  5km/h 6mph /  9.7km/h 81% 0in /  0.0mm
07:09 55.8 °F /  13.2 °C 50 °F /  10 °C 30.1in /  1020.0hPa SSO 2.9mph /  4.7km/h 5.9mph /  9.5km/h 81% 0in /  0.0mm
07:14 55.8 °F /  13.2 °C 50 °F /  10 °C 30.1in /  1020.0hPa SSO 3mph /  4.9km/h 6.9mph /  11.1km/h 81% 0in /  0.0mm
07:19 55.8 °F /  13.2 °C 50 °F /  10 °C 30.1in /  1020.0hPa SSO 4mph /  6.4km/h 7mph /  11.3km/h 81% 0in /  0.0mm
07:24 55.8 °F /  13.2 °C 49.8 °F /  9.9 °C 30.1in /  1020.0hPa SSE 3.9mph /  6.3km/h 6mph /  9.7km/h 80.6% 0in /  0.0mm
07:29 55.6 °F /  13.1 °C 49.5 °F /  9.7 °C 30.1in /  1019.9hPa SE 3.1mph /  5km/h 6mph /  9.7km/h 80% 0in /  0.0mm
07:34 55.2 °F /  12.9 °C 49.3 °F /  9.6 °C 30.1in /  1019.9hPa SSE 3.1mph /  5km/h 5.9mph /  9.5km/h 80% 0in /  0.0mm
07:39 55 °F /  12.8 °C 49.1 °F /  9.5 °C 30.1in /  1019.9hPa Sur 3.1mph /  5km/h 6mph /  9.7km/h 80.1% 0in /  0.0mm
07:44 55 °F /  12.8 °C 49.3 °F /  9.6 °C 30.1in /  1019.9hPa SSO 3.1mph /  5km/h 6mph /  9.7km/h 81% 0in /  0.0mm
07:49 55 °F /  12.8 °C 49.3 °F /  9.6 °C 30.1in /  1019.9hPa Sur 3.1mph /  5km/h 5mph /  8km/h 81% 0in /  0.0mm
07:54 55 °F /  12.8 °C 49.3 °F /  9.6 °C 30.1in /  1019.9hPa Sur 3mph /  4.8km/h 5mph /  8km/h 81% 0in /  0.0mm
07:59 55 °F /  12.8 °C 49.3 °F /  9.6 °C 30.1in /  1019.9hPa SSE 2.4mph /  3.9km/h 3.5mph /  5.6km/h 81% 0in /  0.0mm
08:04 55 °F /  12.8 °C 48.9 °F /  9.4 °C 30.1in /  1019.9hPa ESE 2.4mph /  3.8km/h 4.7mph /  7.6km/h 80% 0in /  0.0mm
08:09 54.9 °F /  12.7 °C 48.7 °F /  9.3 °C 30.1in /  1019.9hPa Este 2mph /  3.2km/h 5mph /  8km/h 79.5% 0in /  0.0mm
08:14 54.7 °F /  12.6 °C 48.7 °F /  9.3 °C 30.1in /  1019.9hPa SSE 2.1mph /  3.3km/h 5.8mph /  9.3km/h 80% 0in /  0.0mm
08:19 54.7 °F /  12.6 °C 48.7 °F /  9.3 °C 30.1in /  1019.9hPa Sur 2.4mph /  3.9km/h 6mph /  9.7km/h 80.2% 0in /  0.0mm
08:24 54.7 °F /  12.6 °C 48.9 °F /  9.4 °C 30.1in /  1020.0hPa Sur 2.5mph /  4.1km/h 6.2mph /  10km/h 81% 0in /  0.0mm
08:29 54.9 °F /  12.7 °C 49.1 °F /  9.5 °C 30.1in /  1020.0hPa Sur 3.6mph /  5.8km/h 6.9mph /  11.1km/h 81% 0in /  0.0mm
08:34 55 °F /  12.8 °C 49.3 °F /  9.6 °C 30.1in /  1020.0hPa Sur 3.7mph /  5.9km/h 7mph /  11.3km/h 81% 0in /  0.0mm
08:39 55.2 °F /  12.9 °C 49.5 °F /  9.7 °C 30.1in /  1020.1hPa SSO 4mph /  6.4km/h 5.8mph /  9.3km/h 80.8% 0in /  0.0mm
08:44 55.2 °F /  12.9 °C 49.3 °F /  9.6 °C 30.1in /  1020.1hPa Sur 3.9mph /  6.3km/h 6mph /  9.7km/h 80% 0in /  0.0mm
08:49 55.6 °F /  13.1 °C 49.3 °F /  9.6 °C 30.1in /  1020.1hPa SSO 3.1mph /  5km/h 6.2mph /  10km/h 79.4% 0in /  0.0mm
08:54 55.6 °F /  13.1 °C 49.3 °F /  9.6 °C 30.1in /  1020.2hPa Sur 3.2mph /  5.2km/h 6.9mph /  11.1km/h 79% 0in /  0.0mm
08:59 55.6 °F /  13.1 °C 48.9 °F /  9.4 °C 30.1in /  1020.2hPa SSE 4.3mph /  6.9km/h 7.4mph /  11.9km/h 78.4% 0in /  0.0mm
09:04 55.6 °F /  13.1 °C 48.7 °F /  9.3 °C 30.1in /  1020.2hPa SSE 4.3mph /  7km/h 7mph /  11.3km/h 78% 0in /  0.0mm
09:09 55.4 °F /  13 °C 48.6 °F /  9.2 °C 30.1in /  1020.2hPa Sur 4.7mph /  7.6km/h 6.9mph /  11.1km/h 78% 0in /  0.0mm
09:14 55.2 °F /  12.9 °C 48.6 °F /  9.2 °C 30.1in /  1020.2hPa Sur 4.7mph /  7.5km/h 6.9mph /  11.1km/h 78% 0in /  0.0mm
09:19 55.6 °F /  13.1 °C 48.9 °F /  9.4 °C 30.1in /  1020.2hPa Sur 4.3mph /  6.9km/h 6.2mph /  10km/h 78% 0in /  0.0mm
09:24 55.9 °F /  13.3 °C 49.1 °F /  9.5 °C 30.1in /  1020.4hPa SSO 4.3mph /  6.9km/h 6.9mph /  11.1km/h 78% 0in /  0.0mm
09:29 55.9 °F /  13.3 °C 49.3 °F /  9.6 °C 30.1in /  1020.4hPa SSO 4mph /  6.5km/h 7mph /  11.3km/h 77.9% 0in /  0.0mm
09:34 56.3 °F /  13.5 °C 49.3 °F /  9.6 °C 30.1in /  1020.4hPa SSO 3.9mph /  6.3km/h 5.4mph /  8.7km/h 77% 0in /  0.0mm
09:39 56.7 °F /  13.7 °C 49.5 °F /  9.7 °C 30.1in /  1020.6hPa SSO 3.1mph /  5km/h 6.2mph /  10km/h 76.7% 0in /  0.0mm
09:44 56.8 °F /  13.8 °C 49.6 °F /  9.8 °C 30.1in /  1020.6hPa SSO 3.2mph /  5.2km/h 6.2mph /  10km/h 76.4% 0in /  0.0mm
09:49 57 °F /  13.9 °C 49.6 °F /  9.8 °C 30.1in /  1020.6hPa SO 4mph /  6.4km/h 6.2mph /  10km/h 76% 0in /  0.0mm
09:54 57.2 °F /  14 °C 49.6 °F /  9.8 °C 30.1in /  1020.7hPa SSO 4mph /  6.5km/h 7.4mph /  11.9km/h 75.5% 0in /  0.0mm
09:59 57.4 °F /  14.1 °C 49.8 °F /  9.9 °C 30.1in /  1020.7hPa SSO 4mph /  6.5km/h 7mph /  11.3km/h 75.8% 0in /  0.0mm
10:04 57.6 °F /  14.2 °C 50 °F /  10 °C 30.1in /  1020.7hPa Sur 4mph /  6.5km/h 6mph /  9.7km/h 76% 0in /  0.0mm
10:09 57.7 °F /  14.3 °C 50.2 °F /  10.1 °C 30.1in /  1020.7hPa SSE 4mph /  6.5km/h 5mph /  8km/h 75.6% 0in /  0.0mm
10:14 58.3 °F /  14.6 °C 50.4 °F /  10.2 °C 30.1in /  1020.7hPa Sur 3.9mph /  6.3km/h 5.8mph /  9.3km/h 75% 0in /  0.0mm
10:19 58.5 °F /  14.7 °C 50.5 °F /  10.3 °C 30.1in /  1020.7hPa SSO 3.1mph /  5km/h 6.2mph /  10km/h 75% 0in /  0.0mm
10:24 58.5 °F /  14.7 °C 50.5 °F /  10.3 °C 30.1in /  1020.8hPa SSO 3.2mph /  5.2km/h 6.9mph /  11.1km/h 75% 0in /  0.0mm
10:29 58.6 °F /  14.8 °C 50.7 °F /  10.4 °C 30.1in /  1020.8hPa SSO 4mph /  6.4km/h 7mph /  11.3km/h 75.2% 0in /  0.0mm
10:34 58.6 °F /  14.8 °C 51.3 °F /  10.7 °C 30.1in /  1020.8hPa Sur 4mph /  6.5km/h 7mph /  11.3km/h 76% 0in /  0.0mm
10:39 59 °F /  15 °C 51.4 °F /  10.8 °C 30.2in /  1021.1hPa Sur 4.3mph /  6.9km/h 7.4mph /  11.9km/h 76% 0in /  0.0mm
10:44 59 °F /  15 °C 51.4 °F /  10.8 °C 30.2in /  1021.1hPa SSO 4.4mph /  7.1km/h 9.2mph /  14.8km/h 76% 0in /  0.0mm
10:49 59 °F /  15 °C 51.4 °F /  10.8 °C 30.2in /  1021.1hPa Sur 5.4mph /  8.7km/h 9.2mph /  14.8km/h 76% 0in /  0.0mm
10:54 59.2 °F /  15.1 °C 51.6 °F /  10.9 °C 30.2in /  1021.1hPa Sur 5.4mph /  8.7km/h 9.2mph /  14.8km/h 76% 0in /  0.0mm
Murcia-Puente Tocinos, España
Compliments of Weather Underground - 2 mb

La estación de MeteoMurcia.com, publica sus datos en los siguientes proyectos:

Weather Underground PWS IMURCIAP2 Meteoclimatic www.awekas.at

W3Counter
Web Analytics